Time;durP1;ratioP1;P1;durP2;ratioP2;P2;SDS_P1;SDS_P2;PMS_P1;PMS_P2;Temp;Humidity;BMP_temperature;BMP_pressure;BME280_temperature;BME280_humidity;BME280_pressure;Samples;Min_cycle;Max_cycle;Signal;HPM_P1;HPM_P2
2022/05/12 12:44:14;;;;;;;7.95;1.65;;;;;;;16.10;56.78;99247.29;1861280;73;22051;-61
2022/05/12 12:47:08;;;;;;;11.50;1.60;;;;;;;16.12;57.05;99254.60;1833669;75;21052;-61
2022/05/12 12:50:07;;;;;;;5.67;1.17;;;;;;;15.99;56.75;99265.72;1784972;78;21086;-60
2022/05/12 12:52:42;;;;;;;3.80;0.90;;;;;;;15.76;56.36;99263.05;1674473;83;21145;-61
2022/05/12 12:58:06;;;;;;;8.83;1.30;;;;;;;15.29;56.13;99262.19;1669232;83;21030;-60
2022/05/12 13:00:36;;;;;;;8.20;1.27;;;;;;;14.97;55.53;99263.22;1674091;83;21303;-60
2022/05/12 13:03:11;;;;;;;2.62;1.22;;;;;;;14.76;56.15;99275.66;1674236;84;21050;-60
2022/05/12 13:05:37;;;;;;;3.47;1.20;;;;;;;14.60;55.51;99268.97;1670289;84;21034;-60
2022/05/12 13:08:09;;;;;;;3.62;1.92;;;;;;;14.51;55.87;99276.52;1669529;84;20982;-60
2022/05/12 13:10:49;;;;;;;3.40;0.95;;;;;;;14.44;56.14;99280.52;1655735;85;21131;-60
2022/05/12 13:13:16;;;;;;;7.47;1.55;;;;;;;14.33;56.13;99288.30;1671850;83;21014;-60
2022/05/12 13:15:46;;;;;;;;;;;;;;;14.29;56.43;99289.48;1673215;84;21080;-60
2022/05/12 13:18:22;;;;;;;5.80;1.62;;;;;;;14.36;56.68;99285.46;1669637;84;20135;-60
2022/05/12 13:20:51;;;;;;;5.50;1.00;;;;;;;14.48;56.98;99296.44;1670042;83;21064;-60
2022/05/12 13:23:25;;;;;;;7.28;1.22;;;;;;;14.38;56.63;99291.45;1674971;83;21075;-60
2022/05/12 13:25:53;;;;;;;6.50;1.70;;;;;;;14.15;56.88;99297.47;1639116;84;21634;-60
2022/05/12 13:28:24;;;;;;;2.95;1.05;;;;;;;13.85;56.90;99299.91;1735188;80;21857;-60
2022/05/12 13:31:12;;;;;;;1.77;0.90;;;;;;;13.81;57.38;99310.27;1674835;84;21023;-60
2022/05/12 13:34:04;;;;;;;8.63;1.90;;;;;;;13.91;57.45;99317.87;1733147;81;21067;-60
2022/05/12 13:36:36;;;;;;;7.05;1.47;;;;;;;13.96;57.71;99306.59;1733638;81;21202;-59
2022/05/12 13:39:04;;;;;;;4.60;1.22;;;;;;;14.24;57.45;99320.46;1730430;80;21148;-60
2022/05/12 13:41:38;;;;;;;6.55;1.40;;;;;;;14.00;57.30;99319.02;1678122;83;21049;-61
2022/05/12 13:44:36;;;;;;;5.60;1.52;;;;;;;14.00;57.30;99319.02;1674090;84;21025;-61
2022/05/12 13:47:10;;;;;;;10.38;1.45;;;;;;;14.02;57.43;99316.66;1547435;90;21352;-62
2022/05/12 13:49:42;;;;;;;11.63;2.62;;;;;;;14.22;57.05;99319.72;1559898;90;21017;-60
2022/05/12 13:52:22;;;;;;;20.12;11.53;;;;;;;14.48;57.53;99310.89;1596943;88;21232;-61
2022/05/12 13:55:01;;;;;;;6.03;1.90;;;;;;;14.60;57.23;99316.27;1597664;88;22420;-61
2022/05/12 13:57:54;;;;;;;6.00;1.87;;;;;;;14.50;56.74;99316.85;1597303;88;21491;-61
2022/05/12 14:00:51;;;;;;;9.23;1.55;;;;;;;14.39;57.09;99327.27;1599063;87;21187;-61
2022/05/12 14:03:50;;;;;;;20.43;10.53;;;;;;;14.31;56.36;99321.70;1604408;87;21022;-60
2022/05/12 14:06:27;;;;;;;6.12;1.42;;;;;;;14.19;56.72;99325.19;1674889;84;21036;-61
2022/05/12 14:09:09;;;;;;;5.70;1.90;;;;;;;14.22;56.82;99336.31;1675976;82;21926;-62
2022/05/12 14:11:36;;;;;;;9.18;5.80;;;;;;;14.39;57.41;99343.03;1671363;84;21133;-61
2022/05/12 14:19:44;;;;;;;4.87;1.25;;;;;;;14.30;57.19;99350.23;1672244;84;21128;-61
2022/05/12 14:22:15;;;;;;;3.30;1.60;;;;;;;14.43;56.97;99351.56;1631929;83;21107;-61
2022/05/12 14:24:48;;;;;;;6.87;1.65;;;;;;;14.36;56.73;99331.42;1665719;84;21640;-62
2022/05/12 14:27:20;;;;;;;6.65;1.67;;;;;;;14.26;56.98;99355.34;1631894;86;20959;-61
2022/05/12 14:29:49;;;;;;;6.53;1.50;;;;;;;14.19;56.78;99359.31;1668107;83;21130;-61
2022/05/12 14:32:18;;;;;;;8.48;3.70;;;;;;;13.97;57.04;99361.23;1671697;84;21017;-60
2022/05/12 14:34:47;;;;;;;16.30;5.47;;;;;;;13.99;57.32;99351.00;1668633;84;21106;-59
2022/05/12 14:37:15;;;;;;;6.90;1.47;;;;;;;14.12;57.21;99369.88;1672894;82;21009;-60
2022/05/12 14:39:42;;;;;;;5.55;1.30;;;;;;;14.00;56.88;99371.08;1666436;84;22670;-61
2022/05/12 14:42:09;;;;;;;9.28;1.07;;;;;;;14.04;57.37;99367.28;1670454;84;21214;-60
2022/05/12 14:44:36;;;;;;;;;;;;;;;14.04;57.00;99375.16;1652489;85;21164;-60
2022/05/12 14:47:08;;;;;;;9.70;1.27;;;;;;;14.06;57.37;99378.53;1650151;85;21219;-61
2022/05/12 14:49:44;;;;;;;7.15;1.85;;;;;;;14.17;57.27;99383.52;1641709;83;21017;-62
2022/05/12 14:52:16;;;;;;;16.50;1.90;;;;;;;14.43;57.45;99370.78;1671854;84;20938;-60
2022/05/12 14:54:45;;;;;;;11.60;1.40;;;;;;;14.44;57.13;99376.39;1667403;82;21006;-61
2022/05/12 14:57:19;;;;;;;6.87;1.55;;;;;;;14.49;57.03;99378.23;1669366;84;21118;-60
2022/05/12 14:59:48;;;;;;;6.03;1.22;;;;;;;14.53;56.98;99382.34;1670740;83;21203;-60
2022/05/12 15:02:20;;;;;;;14.38;2.20;;;;;;;14.61;56.77;99373.11;1635741;85;21086;-61
2022/05/12 15:04:48;;;;;;;31.30;2.40;;;;;;;14.60;56.99;99384.09;1648929;85;21074;-61
2022/05/12 15:07:21;;;;;;;19.23;2.20;;;;;;;14.70;57.04;99380.34;1649807;85;21093;-60
2022/05/12 15:09:45;;;;;;;9.75;1.77;;;;;;;14.91;56.41;99378.84;1644125;86;21831;-60
2022/05/12 15:12:17;;;;;;;9.68;1.27;;;;;;;14.85;56.37;99400.31;1674049;83;21212;-60
2022/05/12 15:14:45;;;;;;;7.22;1.60;;;;;;;14.91;56.13;99378.84;1673604;84;21120;-60
2022/05/12 15:17:25;;;;;;;11.65;1.82;;;;;;;14.83;56.27;99393.00;1671961;84;20985;-61
2022/05/12 15:19:52;;;;;;;4.67;1.42;;;;;;;14.71;56.18;99395.18;1670119;82;21029;-61
2022/05/12 15:22:21;;;;;;;6.95;1.50;;;;;;;14.48;56.17;99396.27;1669067;83;24056;-61
2022/05/12 15:24:48;;;;;;;3.20;1.32;;;;;;;14.42;56.44;99404.54;1648884;85;21213;-61
2022/05/12 15:27:16;;;;;;;7.12;1.50;;;;;;;14.40;55.74;99396.42;1673135;84;21087;-60
2022/05/12 15:29:46;;;;;;;15.88;1.90;;;;;;;14.37;55.97;99396.60;1666210;84;21067;-60
2022/05/12 15:32:13;;;;;;;15.13;1.65;;;;;;;14.44;55.83;99392.15;1666820;83;21107;-61
2022/05/12 15:34:39;;;;;;;10.98;1.35;;;;;;;14.49;55.63;99400.56;1669253;84;21100;-61
2022/05/12 15:37:07;;;;;;;2.65;0.88;;;;;;;14.58;55.96;99416.19;1673474;82;21163;-61
2022/05/12 15:39:53;;;;;;;;;;;;;;;14.57;55.68;99405.81;1673356;84;20961;-61
2022/05/12 15:42:21;;;;;;;3.90;1.05;;;;;;;14.49;55.18;99415.01;1635256;85;20259;-61
2022/05/12 15:44:48;;;;;;;5.53;1.40;;;;;;;14.34;55.45;99413.44;1654414;85;21045;-61
2022/05/12 15:47:25;;;;;;;;;;;;;;;14.33;55.74;99409.11;1654787;85;21127;-61
2022/05/12 15:49:53;;;;;;;5.55;1.20;;;;;;;14.34;55.27;99410.81;1643044;85;21116;-61
2022/05/12 15:52:23;;;;;;;5.05;1.60;;;;;;;14.25;55.41;99407.00;1653974;85;21015;-60
2022/05/12 15:54:50;;;;;;;5.75;1.35;;;;;;;14.23;55.46;99402.82;1655737;85;21497;-61
2022/05/12 15:57:17;;;;;;;7.53;1.77;;;;;;;14.14;55.63;99416.55;1650023;84;21086;-62
2022/05/12 15:59:48;;;;;;;4.72;1.20;;;;;;;14.14;55.56;99417.86;1658342;84;21058;-61
2022/05/12 16:02:20;;;;;;;24.60;12.05;;;;;;;14.14;55.70;99416.06;1655382;84;21708;-61
2022/05/12 16:04:49;;;;;;;11.05;1.75;;;;;;;14.19;55.70;99425.80;1622918;86;21128;-61
2022/05/12 16:07:16;;;;;;;6.05;1.45;;;;;;;13.99;55.12;99421.87;1605450;86;21080;-61
2022/05/12 16:09:44;;;;;;;7.50;2.12;;;;;;;13.95;55.40;99416.91;1606328;87;21363;-61
2022/05/12 16:12:25;;;;;;;9.95;1.80;;;;;;;13.91;55.12;99421.53;1599895;87;21090;-61
2022/05/12 16:14:51;;;;;;;;;;;;;;;13.87;55.03;99418.76;1659924;84;21160;-60
2022/05/12 16:17:16;;;;;;;3.08;1.12;;;;;;;13.87;54.93;99431.88;1661052;84;20215;-61
2022/05/12 16:19:43;;;;;;;6.95;1.25;;;;;;;13.84;55.09;99430.77;1638929;84;21095;-61
2022/05/12 16:22:10;;;;;;;3.20;1.00;;;;;;;13.88;55.05;99434.38;1633573;84;21447;-60
2022/05/12 16:24:36;;;;;;;2.87;1.10;;;;;;;13.92;55.10;99438.98;1641682;85;21623;-61
2022/05/12 16:27:08;;;;;;;3.62;1.05;;;;;;;13.91;54.64;99445.16;1644125;84;22337;-60
2022/05/12 16:29:42;;;;;;;4.62;1.20;;;;;;;13.77;54.87;99441.28;1650485;84;21697;-61
2022/05/12 16:32:15;;;;;;;5.35;1.65;;;;;;;13.71;55.02;99441.20;1622957;85;21129;-61
2022/05/12 16:34:45;;;;;;;7.33;1.77;;;;;;;13.69;55.26;99444.86;1595981;87;21613;-62
2022/05/12 16:37:15;;;;;;;4.25;1.45;;;;;;;13.70;55.29;99434.28;1606263;87;21628;-61
2022/05/12 16:39:43;;;;;;;6.17;2.10;;;;;;;13.69;55.32;99452.73;1661406;84;21196;-60
2022/05/12 16:42:10;;;;;;;4.10;1.27;;;;;;;13.64;55.46;99450.43;1665531;83;21029;-60
2022/05/12 16:44:40;;;;;;;6.08;1.50;;;;;;;13.65;55.40;99454.25;1665554;85;22434;-61
2022/05/12 16:47:11;;;;;;;5.40;1.50;;;;;;;13.62;55.27;99440.02;1662503;83;21073;-61
2022/05/12 16:49:40;;;;;;;4.53;1.25;;;;;;;13.55;54.27;99441.34;1635978;85;21642;-62
2022/05/12 16:52:11;;;;;;;3.77;1.22;;;;;;;13.43;55.19;99446.06;1659413;84;21617;-62
2022/05/12 16:54:40;;;;;;;4.25;1.40;;;;;;;13.36;55.07;99453.94;1668158;85;21044;-60
2022/05/12 16:57:10;;;;;;;5.87;1.85;;;;;;;13.26;55.20;99442.36;1666614;85;21112;-61
2022/05/12 16:59:38;;;;;;;4.37;1.90;;;;;;;13.16;55.24;99448.16;1671202;84;20975;-62
2022/05/12 17:02:07;;;;;;;7.40;2.92;;;;;;;13.04;55.29;99438.41;1665327;85;21033;-61
2022/05/12 17:04:34;;;;;;;4.92;2.20;;;;;;;13.01;55.42;99451.71;1666735;85;21943;-61
2022/05/12 17:07:01;;;;;;;4.85;2.00;;;;;;;13.01;55.53;99456.95;1665824;84;21301;-61
2022/05/12 17:09:30;;;;;;;4.90;1.70;;;;;;;12.99;55.38;99448.33;1664736;85;21146;-62
2022/05/12 17:11:59;;;;;;;4.42;1.55;;;;;;;12.89;55.43;99447.23;1663856;84;20979;-61
2022/05/12 17:14:31;;;;;;;2.95;1.25;;;;;;;12.78;55.48;99449.67;1663201;85;21567;-61
2022/05/12 17:16:59;;;;;;;4.30;1.55;;;;;;;12.64;55.47;99444.78;1660500;85;22285;-60
2022/05/12 17:19:28;;;;;;;7.08;1.32;;;;;;;12.56;55.52;99434.39;1665179;84;21053;-61
2022/05/12 17:21:57;;;;;;;2.95;1.25;;;;;;;12.47;55.57;99420.08;1660975;85;21036;-60
2022/05/12 17:24:24;;;;;;;;;;;;;;;12.39;55.57;99432.78;1667252;84;21129;-61
2022/05/12 17:26:53;;;;;;;5.95;1.65;;;;;;;12.30;55.60;99423.70;1660949;84;20146;-61
2022/05/12 17:29:19;;;;;;;5.12;1.40;;;;;;;12.27;55.73;99437.81;1665259;85;21234;-61
2022/05/12 17:31:47;;;;;;;4.35;1.10;;;;;;;12.26;55.71;99433.48;1668237;83;20969;-61
2022/05/12 17:34:13;;;;;;;4.53;1.12;;;;;;;12.18;55.82;99438.33;1662864;85;21112;-61
2022/05/12 17:36:40;;;;;;;5.67;1.73;;;;;;;12.15;55.87;99454.21;1658936;83;21005;-64
2022/05/12 17:39:08;;;;;;;3.98;1.22;;;;;;;12.14;55.98;99450.39;1664168;84;21104;-61
2022/05/12 17:41:35;;;;;;;4.70;1.10;;;;;;;12.13;56.11;99443.02;1658796;83;21252;-61
2022/05/12 17:44:04;;;;;;;7.92;1.45;;;;;;;12.11;56.16;99440.94;1665107;84;20981;-61
2022/05/12 17:46:31;;;;;;;6.53;1.52;;;;;;;12.10;56.19;99451.05;1659968;85;21045;-61
2022/05/12 17:49:05;;;;;;;2.90;1.25;;;;;;;12.03;56.21;99448.39;1639750;86;21522;-60
2022/05/12 17:54:20;;;;;;;5.05;1.10;;;;;;;11.92;56.46;99449.47;1615439;87;22818;-60
2022/05/12 17:56:48;;;;;;;3.87;1.20;;;;;;;11.89;56.48;99448.34;1612337;87;21130;-60
2022/05/12 17:59:15;;;;;;;2.87;1.30;;;;;;;11.81;56.59;99450.88;1605717;87;21029;-61
2022/05/12 18:01:41;;;;;;;4.30;1.20;;;;;;;11.78;56.72;99447.60;1609713;86;21078;-60
2022/05/12 18:04:09;;;;;;;2.87;1.53;;;;;;;11.74;56.54;99444.33;1603796;86;22159;-62
2022/05/12 18:06:37;;;;;;;4.85;1.30;;;;;;;11.72;56.86;99454.02;1612312;87;21227;-60
2022/05/12 18:09:04;;;;;;;11.55;1.40;;;;;;;11.66;56.94;99454.38;1613971;87;21134;-61
2022/05/12 18:11:32;;;;;;;5.08;1.10;;;;;;;11.60;57.03;99450.80;1610671;87;21081;-61
2022/05/12 18:13:59;;;;;;;4.60;1.80;;;;;;;11.56;57.17;99453.19;1612583;87;21114;-61
2022/05/12 18:16:27;;;;;;;3.10;1.40;;;;;;;11.47;57.16;99453.70;1595553;88;21116;-60
2022/05/12 18:18:56;;;;;;;3.98;1.72;;;;;;;11.39;57.28;99456.27;1594735;87;21143;-61
2022/05/12 18:21:24;;;;;;;4.65;1.50;;;;;;;11.33;57.43;99451.38;1608568;87;21003;-61
2022/05/12 18:23:53;;;;;;;5.55;1.75;;;;;;;11.25;57.51;99460.09;1609284;86;21557;-61
2022/05/12 18:26:21;;;;;;;5.25;1.77;;;;;;;11.17;57.60;99460.97;1594029;87;21254;-59
2022/05/12 18:28:49;;;;;;;;;;;;;;;11.10;57.66;99460.94;1575157;88;21209;-62
2022/05/12 18:31:20;;;;;;;1.85;1.05;;;;;;;11.01;57.81;99464.02;1587376;88;21990;-60
2022/05/12 18:33:47;;;;;;;3.52;1.32;;;;;;;10.86;58.01;99471.74;1581561;88;21663;-60
2022/05/12 18:36:14;;;;;;;6.95;1.50;;;;;;;10.86;58.01;99471.74;1580260;88;21658;-60
2022/05/12 18:38:41;;;;;;;3.37;1.20;;;;;;;10.78;57.97;99477.83;1591989;87;20988;-61
2022/05/12 18:41:11;;;;;;;5.45;1.55;;;;;;;10.71;58.12;99473.86;1606815;87;21220;-61
2022/05/12 18:43:38;;;;;;;4.65;1.30;;;;;;;10.64;58.22;99475.09;1610715;88;21116;-61
2022/05/12 18:46:05;;;;;;;5.92;1.20;;;;;;;10.56;58.26;99473.33;1603145;87;21096;-61
2022/05/12 18:48:32;;;;;;;5.40;1.20;;;;;;;10.50;58.57;99476.66;1597011;87;21179;-61
2022/05/12 18:50:59;;;;;;;2.37;1.05;;;;;;;10.44;58.60;99476.95;1589302;88;21132;-60
2022/05/12 18:53:25;;;;;;;2.70;1.30;;;;;;;10.39;58.81;99477.66;1586879;87;21130;-60
2022/05/12 18:55:53;;;;;;;3.97;1.20;;;;;;;10.33;58.77;99483.16;1602460;87;21574;-59
2022/05/12 18:58:20;;;;;;;6.67;2.58;;;;;;;10.26;58.93;99481.77;1609954;87;21038;-59
2022/05/12 19:00:48;;;;;;;9.23;2.98;;;;;;;10.20;59.00;99480.77;1617534;87;21097;-61
2022/05/12 19:03:14;;;;;;;5.00;1.40;;;;;;;10.16;59.20;99483.13;1608433;87;21110;-60
2022/05/12 19:05:45;;;;;;;8.25;1.70;;;;;;;10.09;59.27;99486.05;1615711;86;21236;-61
2022/05/12 19:08:16;;;;;;;8.00;1.72;;;;;;;10.03;59.30;99491.57;1610244;87;21292;-60
2022/05/12 19:10:42;;;;;;;5.50;1.55;;;;;;;9.98;59.42;99501.38;1612331;86;21034;-60
2022/05/12 19:13:10;;;;;;;3.40;1.20;;;;;;;9.94;59.62;99502.46;1612420;86;21327;-60
2022/05/12 19:15:38;;;;;;;5.70;1.67;;;;;;;9.90;59.70;99498.30;1593512;87;21596;-60
2022/05/12 19:18:10;;;;;;;5.12;1.52;;;;;;;9.85;59.84;99492.45;1612781;86;21702;-61
2022/05/12 19:20:45;;;;;;;7.80;2.65;;;;;;;9.78;59.93;99504.11;1607894;87;22287;-61
2022/05/12 19:23:14;;;;;;;8.40;2.80;;;;;;;9.71;60.03;99500.08;1610517;87;21089;-61
2022/05/12 19:25:42;;;;;;;7.33;2.35;;;;;;;9.66;60.22;99503.36;1624576;87;21122;-60
2022/05/12 19:28:09;;;;;;;7.87;2.67;;;;;;;9.60;60.31;99491.00;1612773;85;21163;-60
2022/05/12 19:30:41;;;;;;;4.92;2.47;;;;;;;9.55;60.34;99493.00;1603113;87;21104;-60
2022/05/12 19:33:08;;;;;;;8.45;3.30;;;;;;;9.51;60.45;99496.64;1591626;87;22166;-60
2022/05/12 19:35:36;;;;;;;5.00;2.27;;;;;;;9.48;60.65;99496.80;1599520;87;21121;-60
2022/05/12 19:38:05;;;;;;;;;;;;;;;9.47;60.72;99508.14;1599655;88;21504;-61
2022/05/12 19:40:35;;;;;;;9.43;3.02;;;;;;;9.47;60.89;99506.00;1595619;87;20180;-61
2022/05/12 19:43:03;;;;;;;7.42;2.60;;;;;;;9.44;60.95;99503.08;1599273;87;21220;-60
2022/05/12 19:45:31;;;;;;;6.55;2.22;;;;;;;9.38;61.10;99505.94;1597260;88;21103;-60
2022/05/12 19:48:00;;;;;;;9.65;2.42;;;;;;;9.34;61.25;99500.49;1589167;88;21139;-60
2022/05/12 19:50:30;;;;;;;6.53;2.60;;;;;;;9.30;61.34;99502.83;1585841;88;21164;-60
2022/05/12 19:52:57;;;;;;;9.60;2.83;;;;;;;9.28;61.42;99509.89;1593219;88;21033;-60
2022/05/12 19:55:24;;;;;;;8.23;2.50;;;;;;;9.24;61.58;99510.93;1615575;86;21095;-60
2022/05/12 19:57:51;;;;;;;7.95;3.02;;;;;;;9.21;61.73;99511.07;1585152;87;21976;-60
2022/05/12 20:00:23;;;;;;;11.35;3.60;;;;;;;9.18;61.83;99507.68;1622652;86;21122;-60
2022/05/12 20:02:49;;;;;;;7.53;2.77;;;;;;;9.15;61.87;99506.98;1629039;86;21157;-60
2022/05/12 20:05:16;;;;;;;7.00;2.37;;;;;;;9.12;62.01;99507.97;1613133;87;21028;-59
2022/05/12 20:07:43;;;;;;;10.03;2.08;;;;;;;9.11;62.13;99506.28;1619017;87;25509;-60
2022/05/12 20:10:14;;;;;;;6.03;2.40;;;;;;;9.05;62.30;99514.38;1613594;87;21487;-61
2022/05/12 20:12:41;;;;;;;6.85;2.20;;;;;;;8.97;62.32;99506.05;1610555;87;21080;-60
2022/05/12 20:15:09;;;;;;;5.08;2.60;;;;;;;8.89;62.46;99500.34;1605458;87;21632;-60
2022/05/12 20:17:37;;;;;;;6.15;2.33;;;;;;;8.83;62.59;99504.52;1631578;86;21528;-59
2022/05/12 20:20:14;;;;;;;3.12;1.80;;;;;;;8.78;62.64;99500.80;1618841;87;21050;-60
2022/05/12 20:22:41;;;;;;;4.20;1.77;;;;;;;8.73;62.74;99503.59;1611218;87;21125;-59
2022/05/12 20:25:08;;;;;;;5.87;2.05;;;;;;;8.71;62.85;99504.13;1607547;87;21023;-60
2022/05/12 20:27:35;;;;;;;4.47;2.22;;;;;;;8.68;62.93;99506.88;1613548;87;21025;-60
2022/05/12 20:30:04;;;;;;;5.67;1.73;;;;;;;8.65;62.93;99508.27;1613967;87;21518;-60
2022/05/12 20:32:33;;;;;;;4.78;2.40;;;;;;;8.61;63.05;99510.63;1615547;87;20979;-60
2022/05/12 20:35:00;;;;;;;5.05;2.17;;;;;;;8.54;63.13;99505.28;1613891;87;21656;-61
2022/05/12 20:37:27;;;;;;;7.08;2.72;;;;;;;8.49;63.26;99507.27;1593532;88;21046;-60
2022/05/12 20:39:55;;;;;;;5.87;2.17;;;;;;;8.35;63.41;99486.16;1624348;86;21642;-60
2022/05/12 20:42:22;;;;;;;8.55;2.08;;;;;;;8.40;63.40;99498.52;1603619;87;21223;-59
2022/05/12 20:44:49;;;;;;;4.35;1.70;;;;;;;8.37;63.46;99506.42;1610548;87;21138;-59
2022/05/12 20:47:15;;;;;;;9.85;2.17;;;;;;;8.34;63.68;99498.29;1610843;87;21025;-60
2022/05/12 20:49:42;;;;;;;8.40;2.40;;;;;;;8.32;63.72;99494.05;1613550;88;22243;-59
2022/05/12 20:52:11;;;;;;;8.70;2.60;;;;;;;8.28;63.82;99494.19;1612872;86;21005;-59
2022/05/12 20:54:37;;;;;;;6.92;2.27;;;;;;;8.23;63.91;99493.55;1647769;84;21017;-60
2022/05/12 20:57:05;;;;;;;6.42;2.02;;;;;;;8.18;63.99;99492.89;1639883;86;21152;-59
2022/05/12 20:59:33;;;;;;;4.15;2.17;;;;;;;8.15;64.09;99494.33;1644251;86;21104;-60
2022/05/12 21:01:59;;;;;;;6.40;2.30;;;;;;;8.13;64.24;99493.53;1607965;87;21082;-60
2022/05/12 21:04:26;;;;;;;5.22;1.98;;;;;;;8.09;64.25;99490.64;1635492;86;21588;-60
2022/05/12 21:06:53;;;;;;;6.50;1.98;;;;;;;8.09;64.39;99493.25;1651376;85;21073;-60
2022/05/12 21:09:20;;;;;;;7.07;2.13;;;;;;;8.05;64.42;99491.23;1643970;85;21048;-60
2022/05/12 21:11:46;;;;;;;4.35;1.80;;;;;;;8.05;64.58;99487.80;1633915;86;22264;-60
2022/05/12 21:14:16;;;;;;;6.47;2.10;;;;;;;8.05;64.68;99481.30;1628113;86;21079;-60
2022/05/12 21:16:43;;;;;;;7.58;1.90;;;;;;;8.03;64.70;99480.50;1653413;86;21626;-60
2022/05/12 21:19:12;;;;;;;5.45;1.80;;;;;;;8.03;64.83;99483.10;1641601;86;21015;-60
2022/05/12 21:21:38;;;;;;;5.40;2.08;;;;;;;7.99;64.88;99482.39;1636616;86;21098;-60
2022/05/12 21:24:06;;;;;;;8.27;1.90;;;;;;;7.99;65.05;99482.84;1602808;86;21119;-59
2022/05/12 21:26:33;;;;;;;9.18;2.10;;;;;;;7.97;65.04;99483.36;1633563;85;21038;-60
2022/05/12 21:29:00;;;;;;;6.77;2.40;;;;;;;7.95;65.15;99478.66;1617677;86;21074;-60
2022/05/12 21:31:26;;;;;;;;;;;;;;;7.94;65.20;99484.78;1642199;85;21049;-60
2022/05/12 21:33:53;;;;;;;6.45;1.80;;;;;;;7.93;65.41;99477.90;1639829;85;20098;-60
2022/05/12 21:36:19;;;;;;;3.67;1.47;;;;;;;7.91;65.38;99479.25;1656073;86;22352;-60
2022/05/12 21:38:48;;;;;;;4.57;1.57;;;;;;;7.94;65.49;99487.38;1622101;86;20985;-60
2022/05/12 21:41:17;;;;;;;5.37;1.75;;;;;;;7.97;65.56;99488.55;1620849;86;21101;-60
2022/05/12 21:43:45;;;;;;;5.95;1.75;;;;;;;7.99;65.59;99480.25;1658544;84;21144;-60
2022/05/12 21:46:13;;;;;;;5.35;2.50;;;;;;;7.89;65.65;99459.42;1640550;84;21131;-60
2022/05/12 21:48:40;;;;;;;7.70;2.35;;;;;;;7.89;65.65;99459.42;1642577;85;21423;-60
2022/05/12 21:51:16;;;;;;;4.78;1.72;;;;;;;7.98;65.76;99475.94;1640778;85;21067;-60
2022/05/12 21:53:52;;;;;;;4.65;1.70;;;;;;;7.97;65.87;99480.75;1638604;85;21167;-59
2022/05/12 21:56:25;;;;;;;5.45;2.10;;;;;;;7.96;65.97;99473.88;1636212;85;21094;-60
2022/05/12 22:01:44;;;;;;;3.87;1.37;;;;;;;7.98;66.15;99472.03;1633088;85;21989;-60
2022/05/12 22:04:18;;;;;;;4.37;1.85;;;;;;;7.99;66.19;99463.34;1630083;85;21031;-60
2022/05/12 22:06:55;;;;;;;6.33;1.70;;;;;;;8.03;66.28;99463.60;1630235;85;21126;-60
2022/05/12 22:09:29;;;;;;;4.20;1.53;;;;;;;8.07;66.36;99463.88;1637199;84;21638;-60
2022/05/12 22:14:42;;;;;;;5.80;1.40;;;;;;;8.10;66.46;99448.16;1638944;86;21987;-60
2022/05/12 22:17:13;;;;;;;5.67;1.72;;;;;;;8.09;66.56;99452.94;1638283;86;22081;-61
2022/05/12 22:19:41;;;;;;;5.35;1.57;;;;;;;8.10;66.67;99453.35;1636314;85;21143;-61
2022/05/12 22:22:08;;;;;;;3.95;1.67;;;;;;;8.10;66.74;99453.35;1635258;85;21084;-60
2022/05/12 22:24:34;;;;;;;4.03;1.55;;;;;;;8.10;66.80;99453.35;1637482;85;21186;-61
2022/05/12 22:27:03;;;;;;;5.53;1.75;;;;;;;8.10;66.92;99455.95;1649650;85;22415;-60
2022/05/12 22:29:30;;;;;;;3.95;1.95;;;;;;;8.12;66.94;99451.51;1640056;86;22230;-60
2022/05/12 22:31:57;;;;;;;5.65;1.87;;;;;;;8.15;67.03;99444.91;1636297;86;20995;-60
2022/05/12 22:34:24;;;;;;;5.72;1.80;;;;;;;8.15;67.03;99444.91;1632120;86;21111;-61
2022/05/12 22:36:52;;;;;;;5.05;1.80;;;;;;;8.19;67.21;99452.96;1636097;86;21139;-61
2022/05/12 22:39:19;;;;;;;6.55;2.05;;;;;;;8.22;67.27;99448.93;1627494;86;26697;-61
2022/05/12 22:41:46;;;;;;;4.70;1.57;;;;;;;8.24;67.30;99445.81;1634700;86;21121;-61
2022/05/12 22:44:13;;;;;;;3.40;1.30;;;;;;;8.26;67.39;99449.20;1636742;86;21084;-61
2022/05/12 22:46:42;;;;;;;3.42;1.32;;;;;;;8.29;67.42;99451.67;1642756;86;20999;-61
2022/05/12 22:49:09;;;;;;;8.35;1.47;;;;;;;8.30;67.47;99449.45;1637840;86;21067;-61
2022/05/12 22:51:36;;;;;;;4.62;2.17;;;;;;;8.33;67.47;99453.69;1620556;86;21187;-61
2022/05/12 22:54:05;;;;;;;3.87;1.42;;;;;;;8.37;67.65;99438.78;1630987;86;21004;-60
2022/05/12 22:56:32;;;;;;;6.25;1.50;;;;;;;8.38;67.68;99441.80;1624533;86;21032;-60
2022/05/12 22:58:59;;;;;;;4.45;1.67;;;;;;;8.40;67.72;99446.48;1629697;85;21005;-61
2022/05/12 23:01:25;;;;;;;13.25;1.67;;;;;;;8.40;67.72;99436.95;1623996;85;21048;-61
2022/05/12 23:03:52;;;;;;;5.08;1.55;;;;;;;8.41;67.74;99444.30;1628903;85;21073;-61
2022/05/12 23:06:18;;;;;;;3.02;1.40;;;;;;;8.39;67.83;99442.20;1630987;86;21166;-61
2022/05/12 23:08:45;;;;;;;5.10;1.22;;;;;;;8.37;67.94;99438.78;1636148;85;20999;-60
2022/05/12 23:11:12;;;;;;;5.15;1.50;;;;;;;8.37;67.98;99447.89;1633911;85;21549;-61
2022/05/12 23:13:42;;;;;;;6.12;1.60;;;;;;;8.39;68.04;99439.60;1628737;86;22323;-61
2022/05/12 23:16:17;;;;;;;6.03;1.32;;;;;;;8.42;68.12;99439.47;1596061;87;21593;-60
2022/05/12 23:24:14;;;;;;;3.65;1.42;;;;;;;8.50;68.22;99442.13;1628576;86;21019;-59
2022/05/12 23:26:40;;;;;;;3.08;1.35;;;;;;;8.52;68.29;99434.27;1635822;85;20970;-60
2022/05/12 23:29:08;;;;;;;5.23;1.50;;;;;;;8.56;68.28;99440.17;1617322;85;21027;-59
2022/05/12 23:31:35;;;;;;;8.00;1.80;;;;;;;8.55;68.36;99436.73;1622006;85;21294;-60
2022/05/12 23:34:01;;;;;;;6.87;2.07;;;;;;;8.59;68.45;99446.08;1629804;85;21042;-59
2022/05/12 23:36:29;;;;;;;7.80;1.67;;;;;;;8.62;68.46;99456.36;1620539;86;21356;-60
2022/05/12 23:38:56;;;;;;;9.70;1.50;;;;;;;8.64;68.50;99458.45;1637488;86;21133;-59
2022/05/12 23:41:23;;;;;;;5.05;1.30;;;;;;;8.63;68.55;99460.67;1622998;85;21487;-60
2022/05/12 23:43:50;;;;;;;10.30;2.30;;;;;;;8.62;68.53;99458.96;1631041;85;22623;-60
2022/05/12 23:46:16;;;;;;;4.53;1.05;;;;;;;8.60;68.64;99460.80;1600587;87;21049;-59
2022/05/12 23:48:43;;;;;;;5.80;1.80;;;;;;;8.58;68.68;99457.41;1627786;86;20939;-60
2022/05/12 23:51:10;;;;;;;5.58;1.57;;;;;;;8.56;68.73;99456.62;1633901;86;21007;-59
2022/05/12 23:53:38;;;;;;;5.57;1.43;;;;;;;8.55;68.77;99456.25;1637194;85;21459;-60
2022/05/12 23:56:06;;;;;;;3.58;1.40;;;;;;;8.43;69.12;99458.93;1625928;87;21343;-60
2022/05/12 23:58:34;;;;;;;8.88;2.35;;;;;;;8.41;69.29;99461.20;1627174;87;20967;-59
